Nearby METAR Reports

 

KCLM - Port Angeles, Washington, USA
Distance from station: W 17mi, 27km
Updated: Thu, 23-Mar-2017 10:53pm PDT
Overcast
Overcast
 Wind from calm
Wind: Calm
Temperature: 45°F , 7°C
Dew Point: 39°F , 4°C
Humidity: 81%
Barometer: 29.77 inHg , 1008.1 hPa
Clouds: Overcast
Visibility: 10 miles , 16 km
Cloud details: Partly cloudy 6000 ft
Mostly cloudy 7500 ft
Overcast 10000 ft
2017/03/24 05:53 KCLM 240553Z AUTO 00000KT 10SM SCT060 BKN075 OVC100 07/04 A2977 RMK AO2 SLP081 60000 T00720039 10078 20067 58013
CWQK - Race Rocks Autob, British Columbia, Canada
Distance from station: NW 23mi, 36km
Updated: Thu, 23-Mar-2017 10:00pm PDT

 Wind from ENE
Wind: ENE 13 mph , 20 km/h
Temperature: 48°F , 9°C
Wind Chill: 43°F , 6°C
Dew Point: 39°F , 4°C
Humidity: 71%
2017/03/24 05:00 CWQK 240500Z AUTO 06011KT 09/04 RMK AO1 SLP086 T00890042 56012
 
KNUW - Whidbey Is. Nas, Washington, USA
Distance from station: NE 28mi, 45km
Updated: Thu, 23-Mar-2017 10:56pm PDT
Overcast
Overcast
 Wind from SE
Wind: SE 15 mph , 24 km/h
Temperature: 48°F , 9°C
Wind Chill: 42°F , 6°C
Dew Point: 39°F , 4°C
Humidity: 71%
Barometer: 29.89 inHg , 1012.2 hPa
Clouds: Overcast
Visibility: 10 miles , 16 km
Cloud details: Partly cloudy 2500 ft
Mostly cloudy 6500 ft
Overcast 8000 ft
2017/03/24 05:56 KNUW 240556Z 14013KT 10SM SCT025 BKN065 OVC080 09/04 A2989 RMK AO2 SLP121 60000 T00890039 10122 20089 56006 $
KFHR - Friday Harbor, Washington, USA
Distance from station: N 29mi, 46km
Updated: Thu, 23-Mar-2017 10:53pm PDT
Light rain, Overcast
Light rain, Overcast
 Wind from SE
Wind: SE 18 mph , 30 km/h, Gust: 29 mph , 46 km/h
Temperature: 46°F , 8°C
Wind Chill: 39°F , 4°C
Dew Point: 39°F , 4°C
Humidity: 76%
Barometer: 29.83 inHg , 1010.2 hPa
Summary: Light rain
Clouds: Overcast
Visibility: 10 miles , 16 km
Cloud details: Overcast 4800 ft
2017/03/24 05:53 KFHR 240553Z AUTO 14016G25KT 10SM -RA OVC048 08/04 A2983 RMK AO2 SLP102 P0000 60000 T00830039 10111 20083 56006
 
KBVS - Burlington/Mt V, Washington, USA
Distance from station: NE 41mi, 66km
Updated: Thu, 23-Mar-2017 10:55pm PDT
Overcast
Overcast
 Wind from SE
Wind: SE 3 mph , 6 km/h
Temperature: 46°F , 8°C
Dew Point: 43°F , 6°C
Humidity: 87%
Barometer: 29.87 inHg , 1011.5 hPa
Clouds: Overcast
Visibility: 10 miles , 16 km
Cloud details: Few Clouds 3000 ft
Overcast 4000 ft
2017/03/24 05:55 KBVS 240555Z AUTO 13003KT 10SM FEW030 OVC040 08/06 A2987 RMK A01 P0002
KPAE - Everett, Washington, USA
Distance from station: ESE 42mi, 67km
Updated: Thu, 23-Mar-2017 10:53pm PDT
Light rain, Overcast
Light rain, Overcast
 Wind from S
Wind: S 7 mph , 11 km/h
Temperature: 45°F , 7°C
Wind Chill: 41°F , 5°C
Dew Point: 43°F , 6°C
Humidity: 93%
Barometer: 29.88 inHg , 1011.9 hPa
Summary: Light rain
Clouds: Overcast
Visibility: 9 miles , 14 km
Cloud details: Mostly cloudy 3500 ft
Overcast 4600 ft
2017/03/24 05:53 KPAE 240553Z AUTO 17006KT 9SM -RA BKN035 OVC046 07/06 A2988 RMK AO2 SLP119 P0002 60003 T00670061 10117 20067 58005
 
KORS - Eastsound/Orcas, Washington, USA
Distance from station: NNE 42mi, 68km
Updated: Thu, 23-Mar-2017 10:55pm PDT
Rain, Overcast
Rain, Overcast
 Wind from SSE
Wind: SSE 9 mph , 15 km/h, Gust: 16 mph , 26 km/h
Temperature: 45°F , 7°C
Wind Chill: 40°F , 4°C
Dew Point: 41°F , 5°C
Humidity: 87%
Barometer: 29.83 inHg , 1010.2 hPa
Summary: Rain
Clouds: Overcast
Visibility: 5 miles , 8 km
Cloud details: Overcast 2600 ft
2017/03/24 05:55 KORS 240555Z AUTO 15008G14KT 030V040 5SM RA OVC026 07/05 A2983 RMK AO2 P0008
KAWO - Arlington Muni, Washington, USA
Distance from station: E 45mi, 72km
Updated: Thu, 23-Mar-2017 10:55pm PDT
Overcast
Overcast
 Wind from calm
Wind: Calm
Temperature: 46°F , 8°C
Dew Point: 37°F , 3°C
Humidity: 71%
Barometer: 29.90 inHg , 1012.5 hPa
Clouds: Overcast
Visibility: 10 miles , 16 km
Cloud details: Mostly cloudy 4400 ft
Overcast 5000 ft
2017/03/24 05:55 KAWO 240555Z AUTO 00000KT 10SM BKN044 OVC050 08/03 A2990 RMK AO1 10130 20070 57003
 
KPWT - Bremerton Ntnl, Washington, USA
Distance from station: SSE 46mi, 73km
Updated: Thu, 23-Mar-2017 10:55pm PDT
Overcast
Overcast
 Wind from WNW
Wind: WNW 5 mph , 7 km/h
Temperature: 43°F , 6°C
Wind Chill: 40°F , 4°C
Dew Point: 41°F , 5°C
Humidity: 93%
Barometer: 29.92 inHg , 1013.2 hPa
Clouds: Overcast
Visibility: 10 miles , 16 km
Cloud details: Few Clouds 1700 ft
Overcast 2500 ft
2017/03/24 05:55 KPWT 240555Z AUTO 29004KT 10SM FEW017 OVC025 06/05 A2992 RMK AO1 P0014 60045 10110 20060 57007